Time;durP1;ratioP1;P1;durP2;ratioP2;P2;SDS_P1;SDS_P2;PMS_P1;PMS_P2;Temp;Humidity;BMP_temperature;BMP_pressure;BME280_temperature;BME280_humidity;BME280_pressure;Samples;Min_cycle;Max_cycle;Signal;HPM_P1;HPM_P2
2023/07/14 00:00:18;;;;;;;11.00;9.38;;;16.10;99.90;;;;;;5031700;28;20033;-60
2023/07/14 00:02:46;;;;;;;11.90;9.98;;;16.10;99.90;;;;;;5028672;28;20488;-60
2023/07/14 00:05:29;;;;;;;11.32;8.82;;;16.00;99.90;;;;;;5030932;28;20029;-61
2023/07/14 00:07:56;;;;;;;12.63;9.48;;;16.10;99.90;;;;;;5027061;28;20051;-61
2023/07/14 00:10:26;;;;;;;15.98;10.95;;;16.00;99.90;;;;;;5039735;28;20037;-60
2023/07/14 00:12:52;;;;;;;12.13;9.38;;;16.10;99.90;;;;;;5027830;28;20050;-60
2023/07/14 00:15:20;;;;;;;11.60;10.30;;;16.00;99.90;;;;;;5033320;28;20138;-61
2023/07/14 00:17:55;;;;;;;12.18;10.13;;;16.00;99.90;;;;;;5034934;28;20041;-60
2023/07/14 00:20:29;;;;;;;15.13;10.05;;;16.00;99.90;;;;;;5011307;28;20623;-61
2023/07/14 00:22:56;;;;;;;14.90;10.73;;;15.90;99.90;;;;;;5024029;28;20048;-60
2023/07/14 00:25:23;;;;;;;12.45;10.25;;;15.90;99.90;;;;;;5024563;28;20038;-61
2023/07/14 00:27:55;;;;;;;12.32;9.90;;;15.90;99.90;;;;;;5043554;28;20049;-61
2023/07/14 00:30:25;;;;;;;14.13;9.93;;;15.90;99.90;;;;;;5036423;28;20053;-61
2023/07/14 00:32:54;;;;;;;13.75;9.25;;;15.90;99.90;;;;;;5038599;28;20210;-60
2023/07/14 00:35:26;;;;;;;13.77;9.75;;;15.90;99.90;;;;;;5031152;28;20033;-61
2023/07/14 00:37:55;;;;;;;12.82;9.70;;;15.90;99.90;;;;;;5030909;28;20037;-60
2023/07/14 00:40:37;;;;;;;15.25;10.05;;;15.80;99.90;;;;;;5043898;28;20122;-61
2023/07/14 00:43:05;;;;;;;12.38;10.20;;;15.90;99.90;;;;;;5041765;28;20510;-60
2023/07/14 00:45:32;;;;;;;12.70;9.73;;;15.80;99.90;;;;;;5038294;28;20097;-61
2023/07/14 00:48:03;;;;;;;12.68;10.18;;;15.80;99.90;;;;;;5034911;28;20041;-61
2023/07/14 00:50:51;;;;;;;10.52;8.98;;;15.70;99.90;;;;;;5037711;28;20037;-60
2023/07/14 00:53:39;;;;;;;11.60;10.38;;;15.70;99.90;;;;;;5029870;28;20407;-61
2023/07/14 00:56:10;;;;;;;12.35;10.07;;;15.60;99.90;;;;;;5040668;28;20132;-61
2023/07/14 00:58:37;;;;;;;13.45;10.13;;;15.70;99.90;;;;;;5039923;28;20041;-61
2023/07/14 01:01:03;;;;;;;15.85;10.52;;;15.70;99.90;;;;;;5033336;28;20091;-61
2023/07/14 01:03:29;;;;;;;14.65;10.90;;;15.60;99.90;;;;;;5039042;28;20049;-61
2023/07/14 01:05:57;;;;;;;15.52;11.55;;;15.60;99.90;;;;;;5037254;28;20044;-61
2023/07/14 01:08:23;;;;;;;14.38;10.65;;;15.60;99.90;;;;;;5034561;28;20042;-61
2023/07/14 01:10:49;;;;;;;12.55;10.95;;;15.60;99.90;;;;;;5034275;28;20043;-61
2023/07/14 01:13:17;;;;;;;14.68;11.23;;;15.60;99.90;;;;;;5036356;28;20068;-61
2023/07/14 01:15:43;;;;;;;14.80;11.45;;;15.50;99.90;;;;;;5042227;28;20399;-61
2023/07/14 01:18:10;;;;;;;13.48;11.48;;;15.60;99.90;;;;;;5039618;28;20072;-60
2023/07/14 01:20:38;;;;;;;16.60;11.25;;;15.60;99.90;;;;;;5036380;28;20041;-61
2023/07/14 01:23:30;;;;;;;14.32;11.15;;;15.50;99.90;;;;;;5035086;28;20079;-61
2023/07/14 01:25:58;;;;;;;14.50;10.77;;;15.50;99.90;;;;;;5041577;28;20494;-61
2023/07/14 01:28:24;;;;;;;14.32;9.88;;;15.50;99.90;;;;;;5041067;28;20048;-61
2023/07/14 01:30:50;;;;;;;15.60;10.82;;;15.50;99.90;;;;;;5037154;28;20465;-61
2023/07/14 01:33:17;;;;;;;14.80;11.20;;;15.40;99.90;;;;;;5037193;28;20503;-60
2023/07/14 01:35:48;;;;;;;15.77;10.70;;;15.40;99.90;;;;;;5033452;28;20048;-61
2023/07/14 01:38:14;;;;;;;12.43;9.80;;;15.40;99.90;;;;;;5034097;28;20088;-61
2023/07/14 01:40:40;;;;;;;13.55;10.60;;;15.30;99.90;;;;;;5038015;28;20040;-60
2023/07/14 01:43:08;;;;;;;13.23;9.57;;;15.30;99.90;;;;;;5042545;28;20107;-61
2023/07/14 01:45:43;;;;;;;15.18;10.05;;;15.30;99.90;;;;;;5037072;28;20037;-61
2023/07/14 01:48:12;;;;;;;11.82;9.65;;;15.20;99.90;;;;;;5033740;28;20056;-61
2023/07/14 01:50:45;;;;;;;13.88;10.35;;;15.10;99.90;;;;;;5037424;28;20033;-61
2023/07/14 01:53:26;;;;;;;13.80;10.23;;;15.20;99.90;;;;;;5033007;28;20044;-61
2023/07/14 01:55:56;;;;;;;14.02;10.32;;;15.20;99.90;;;;;;5033768;28;20042;-61
2023/07/14 01:58:46;;;;;;;15.38;9.93;;;15.20;99.90;;;;;;5035154;28;20045;-61
2023/07/14 02:01:13;;;;;;;12.90;9.85;;;15.20;99.90;;;;;;5031412;28;20033;-61
2023/07/14 02:03:44;;;;;;;13.23;9.63;;;15.10;99.90;;;;;;5037774;28;20056;-61
2023/07/14 02:06:10;;;;;;;13.75;9.98;;;15.10;99.90;;;;;;5031430;28;20037;-60
2023/07/14 02:08:36;;;;;;;15.00;10.43;;;15.10;99.90;;;;;;5032984;28;20083;-60
2023/07/14 02:11:02;;;;;;;12.50;9.85;;;15.10;99.90;;;;;;5031695;28;20052;-61
2023/07/14 02:13:28;;;;;;;11.35;9.30;;;15.10;99.90;;;;;;5033053;28;20042;-61
2023/07/14 02:15:55;;;;;;;12.85;10.15;;;15.00;99.90;;;;;;5028011;28;20046;-61
2023/07/14 02:18:25;;;;;;;13.57;9.73;;;15.10;99.90;;;;;;5032749;28;20052;-61
2023/07/14 02:20:53;;;;;;;11.50;9.32;;;15.10;99.90;;;;;;5032278;28;20046;-61
2023/07/14 02:23:22;;;;;;;9.95;8.82;;;15.10;99.90;;;;;;5033082;28;20095;-61
2023/07/14 02:26:02;;;;;;;11.95;9.40;;;15.00;99.90;;;;;;5033257;28;20398;-62
2023/07/14 02:28:28;;;;;;;11.63;9.20;;;15.00;99.90;;;;;;5031670;28;20046;-61
2023/07/14 02:31:02;;;;;;;12.20;9.18;;;14.90;99.90;;;;;;5033779;28;20037;-61
2023/07/14 02:33:35;;;;;;;11.90;8.75;;;14.90;99.90;;;;;;5047131;28;20507;-61
2023/07/14 02:36:23;;;;;;;12.35;8.60;;;14.90;99.90;;;;;;5032493;28;20384;-61
2023/07/14 02:38:49;;;;;;;10.68;8.55;;;14.90;99.90;;;;;;5029463;28;20472;-61
2023/07/14 02:41:23;;;;;;;14.00;9.45;;;14.90;99.90;;;;;;5032952;28;20128;-61
2023/07/14 02:43:54;;;;;;;10.60;8.63;;;14.80;99.90;;;;;;5012614;28;20121;-61
2023/07/14 02:46:32;;;;;;;11.80;9.07;;;14.80;99.90;;;;;;5020553;28;20041;-61
2023/07/14 02:48:58;;;;;;;11.73;8.30;;;14.80;99.90;;;;;;5025524;28;20028;-61
2023/07/14 02:51:24;;;;;;;11.25;7.97;;;14.70;99.90;;;;;;5034141;28;20579;-60
2023/07/14 02:53:49;;;;;;;12.25;8.18;;;14.80;99.90;;;;;;5031649;28;20037;-61
2023/07/14 02:56:15;;;;;;;9.70;8.55;;;14.70;99.90;;;;;;5032760;28;20042;-61
2023/07/14 02:58:41;;;;;;;11.13;7.97;;;14.80;99.90;;;;;;5035244;28;20133;-61
2023/07/14 03:01:07;;;;;;;13.35;8.38;;;14.80;99.90;;;;;;5033839;28;20148;-61
2023/07/14 03:03:33;;;;;;;9.75;7.97;;;14.80;99.90;;;;;;5030617;28;20061;-61
2023/07/14 03:05:59;;;;;;;13.35;8.50;;;14.80;99.90;;;;;;5040307;28;20052;-61
2023/07/14 03:08:27;;;;;;;12.32;8.73;;;14.80;99.90;;;;;;5034092;28;20079;-61
2023/07/14 03:10:58;;;;;;;12.55;7.75;;;14.80;99.90;;;;;;5031938;28;20113;-61
2023/07/14 03:13:24;;;;;;;10.48;7.90;;;14.80;99.90;;;;;;5035408;28;20044;-61
2023/07/14 03:15:49;;;;;;;12.07;8.10;;;14.80;99.90;;;;;;5031887;28;20037;-61
2023/07/14 03:18:15;;;;;;;11.55;8.68;;;14.90;99.90;;;;;;5032192;28;20091;-61
2023/07/14 03:20:42;;;;;;;11.35;9.20;;;14.80;99.90;;;;;;5034572;28;20406;-61
2023/07/14 03:23:08;;;;;;;11.10;8.60;;;14.80;99.90;;;;;;5031848;28;20545;-61
2023/07/14 03:25:34;;;;;;;11.68;9.02;;;14.80;99.90;;;;;;5031731;28;20045;-61
2023/07/14 03:28:03;;;;;;;14.77;8.23;;;14.70;99.90;;;;;;5031828;28;20043;-61
2023/07/14 03:30:36;;;;;;;10.85;8.23;;;14.70;99.90;;;;;;5030560;28;20106;-61
2023/07/14 03:33:01;;;;;;;10.07;8.15;;;14.70;99.90;;;;;;5035028;28;20057;-61
2023/07/14 03:35:27;;;;;;;11.00;7.88;;;14.70;99.90;;;;;;5031155;28;20041;-61
2023/07/14 03:37:52;;;;;;;11.65;8.25;;;14.70;99.90;;;;;;5033487;28;20061;-61
2023/07/14 03:40:18;;;;;;;10.55;9.00;;;14.60;99.90;;;;;;5031788;28;20513;-61
2023/07/14 03:42:43;;;;;;;11.65;7.82;;;14.70;99.90;;;;;;5034747;28;20117;-61
2023/07/14 03:45:09;;;;;;;11.85;9.05;;;14.70;99.90;;;;;;5031345;28;20511;-61
2023/07/14 03:47:36;;;;;;;13.77;9.20;;;14.70;99.90;;;;;;5032102;28;20040;-61
2023/07/14 03:50:02;;;;;;;15.98;9.95;;;14.70;99.90;;;;;;5036041;28;20049;-61
2023/07/14 03:52:28;;;;;;;11.13;8.82;;;14.70;99.90;;;;;;5030734;28;20050;-61
2023/07/14 03:54:53;;;;;;;15.75;9.73;;;14.70;99.90;;;;;;5032207;28;20040;-60
2023/07/14 03:57:19;;;;;;;14.15;9.77;;;14.70;99.90;;;;;;5034472;28;20798;-61
2023/07/14 03:59:44;;;;;;;15.20;10.20;;;14.70;99.90;;;;;;5032950;28;20033;-60
2023/07/14 04:02:10;;;;;;;16.00;9.77;;;14.80;99.90;;;;;;5025031;28;20029;-60
2023/07/14 04:04:36;;;;;;;15.85;10.80;;;14.80;99.90;;;;;;5029944;28;20038;-60
2023/07/14 04:07:02;;;;;;;14.63;9.65;;;14.90;99.90;;;;;;5030599;28;20048;-61
2023/07/14 04:09:28;;;;;;;12.85;10.27;;;14.90;99.90;;;;;;5036682;28;20042;-61
2023/07/14 04:11:53;;;;;;;13.75;10.05;;;14.90;99.90;;;;;;5021488;28;20030;-61
2023/07/14 04:14:19;;;;;;;16.67;10.25;;;14.90;99.90;;;;;;5033320;28;20044;-61
2023/07/14 04:16:45;;;;;;;14.43;10.82;;;14.90;99.90;;;;;;5035596;28;20037;-61
2023/07/14 04:19:10;;;;;;;13.85;10.23;;;14.90;99.90;;;;;;5039731;28;20122;-61
2023/07/14 04:21:36;;;;;;;17.23;11.10;;;14.90;99.90;;;;;;5034498;28;20037;-61
2023/07/14 04:24:02;;;;;;;14.45;11.23;;;14.90;99.90;;;;;;5039511;28;20039;-61
2023/07/14 04:26:29;;;;;;;17.77;11.90;;;14.90;99.90;;;;;;5031690;28;20033;-61
2023/07/14 04:28:55;;;;;;;13.85;11.35;;;15.00;99.90;;;;;;5035152;28;20037;-61
2023/07/14 04:31:21;;;;;;;16.85;12.07;;;14.90;99.90;;;;;;5037243;28;20116;-61
2023/07/14 04:33:50;;;;;;;14.02;11.40;;;15.00;99.90;;;;;;5036988;28;20038;-61
2023/07/14 04:36:17;;;;;;;16.70;11.73;;;15.00;99.90;;;;;;5035201;28;20041;-61
2023/07/14 04:39:01;;;;;;;17.42;12.40;;;15.00;99.90;;;;;;5036727;28;20426;-61
2023/07/14 04:41:27;;;;;;;16.88;12.65;;;15.00;99.90;;;;;;5044524;28;20029;-61
2023/07/14 04:43:52;;;;;;;17.75;12.98;;;15.10;99.90;;;;;;5034088;28;20041;-61
2023/07/14 04:46:18;;;;;;;17.88;12.88;;;15.10;99.90;;;;;;5034390;28;20041;-61
2023/07/14 04:48:44;;;;;;;17.17;12.98;;;15.20;99.90;;;;;;5036873;28;20038;-61
2023/07/14 04:51:10;;;;;;;20.52;14.45;;;15.20;99.90;;;;;;5035948;28;20403;-60
2023/07/14 04:53:35;;;;;;;22.23;13.90;;;15.30;99.90;;;;;;5037506;28;20040;-61
2023/07/14 04:56:01;;;;;;;21.08;14.32;;;15.30;99.90;;;;;;5035777;28;20049;-61
2023/07/14 04:58:26;;;;;;;21.38;15.13;;;15.50;99.90;;;;;;5044172;28;20133;-61
2023/07/14 05:00:52;;;;;;;23.20;14.75;;;15.60;99.90;;;;;;5064983;22;20033;-66
2023/07/14 05:03:18;;;;;;;21.98;15.23;;;15.70;99.90;;;;;;5065939;28;20047;-67
2023/07/14 05:05:44;;;;;;;23.13;15.48;;;15.80;99.90;;;;;;5068500;28;20079;-68
2023/07/14 05:08:10;;;;;;;22.48;15.20;;;15.80;99.90;;;;;;5062280;28;20032;-67
2023/07/14 05:10:37;;;;;;;24.90;15.52;;;15.90;99.90;;;;;;5058877;28;20187;-68
2023/07/14 05:13:03;;;;;;;22.75;16.25;;;15.90;99.90;;;;;;5057492;28;20051;-68
2023/07/14 05:15:28;;;;;;;22.80;15.70;;;16.00;99.90;;;;;;5060195;28;20044;-68
2023/07/14 05:17:54;;;;;;;21.23;15.23;;;15.90;99.90;;;;;;5060376;28;20110;-67
2023/07/14 05:20:20;;;;;;;21.58;15.43;;;16.00;99.90;;;;;;5053351;28;20463;-67
2023/07/14 05:22:53;;;;;;;19.48;14.88;;;16.00;99.90;;;;;;5053625;28;20052;-67
2023/07/14 05:25:19;;;;;;;24.55;15.70;;;16.00;99.90;;;;;;5053605;28;20045;-67
2023/07/14 05:27:45;;;;;;;24.38;15.52;;;16.10;99.90;;;;;;5056703;28;20495;-67
2023/07/14 05:30:17;;;;;;;21.60;14.75;;;16.10;99.90;;;;;;5052544;28;20448;-67
2023/07/14 05:32:43;;;;;;;20.38;15.20;;;16.10;99.90;;;;;;5052530;28;20044;-67
2023/07/14 05:35:10;;;;;;;24.52;14.95;;;16.10;99.90;;;;;;5033657;28;20081;-67
2023/07/14 05:37:36;;;;;;;24.40;16.13;;;16.20;99.90;;;;;;5034739;28;20051;-67
2023/07/14 05:40:05;;;;;;;20.95;14.45;;;16.20;99.90;;;;;;5034118;28;20120;-67
2023/07/14 05:42:31;;;;;;;23.25;16.13;;;16.20;99.90;;;;;;5046431;28;20037;-67
2023/07/14 05:44:57;;;;;;;25.20;16.00;;;16.20;99.90;;;;;;5053851;28;20483;-67
2023/07/14 05:47:25;;;;;;;22.15;15.93;;;16.30;99.90;;;;;;5057403;28;20041;-66
2023/07/14 05:49:52;;;;;;;25.55;15.98;;;16.30;99.90;;;;;;5045413;28;20624;-66
2023/07/14 05:52:18;;;;;;;24.88;16.95;;;16.30;99.90;;;;;;5057834;28;20029;-67
2023/07/14 05:54:44;;;;;;;23.17;16.10;;;16.30;99.90;;;;;;5048734;28;20082;-67
2023/07/14 05:57:10;;;;;;;23.27;16.55;;;16.30;99.90;;;;;;5064385;28;20107;-66
2023/07/14 05:59:35;;;;;;;23.35;16.27;;;16.40;99.90;;;;;;5073673;28;20076;-66
2023/07/14 06:02:01;;;;;;;24.02;18.17;;;16.40;99.90;;;;;;5049896;28;20033;-66
2023/07/14 06:04:26;;;;;;;24.00;16.58;;;16.50;99.90;;;;;;5061660;28;20037;-67
2023/07/14 06:06:52;;;;;;;24.92;17.20;;;16.50;99.90;;;;;;5049843;28;20048;-66
2023/07/14 06:09:18;;;;;;;27.00;17.52;;;16.50;99.90;;;;;;5061556;28;20037;-67
2023/07/14 06:11:44;;;;;;;24.13;16.60;;;16.60;99.90;;;;;;5053249;28;20063;-66
2023/07/14 06:14:11;;;;;;;23.35;17.75;;;16.60;99.90;;;;;;5053277;28;20045;-66
2023/07/14 06:16:37;;;;;;;24.50;16.95;;;16.70;99.90;;;;;;5050514;28;20127;-66
2023/07/14 06:19:03;;;;;;;22.88;16.42;;;16.90;99.90;;;;;;5058980;28;20183;-66
2023/07/14 06:21:29;;;;;;;21.45;16.25;;;16.90;99.90;;;;;;5052425;28;20037;-66
2023/07/14 06:23:54;;;;;;;26.52;17.27;;;17.00;99.90;;;;;;5056607;28;20043;-66
2023/07/14 06:26:20;;;;;;;23.08;15.85;;;17.00;99.90;;;;;;5046408;28;20040;-66
2023/07/14 06:28:45;;;;;;;22.55;15.13;;;17.10;99.90;;;;;;5044416;28;20029;-66
2023/07/14 06:31:13;;;;;;;23.27;16.20;;;17.30;99.90;;;;;;5045123;28;20043;-65
2023/07/14 06:33:39;;;;;;;21.65;15.30;;;17.40;99.90;;;;;;5045665;28;20120;-70
2023/07/14 06:36:05;;;;;;;21.17;14.90;;;17.50;99.90;;;;;;5048430;28;20090;-70
2023/07/14 06:38:31;;;;;;;20.40;14.55;;;17.70;99.90;;;;;;5049490;28;20029;-70
2023/07/14 06:41:02;;;;;;;20.73;14.10;;;17.90;99.90;;;;;;5050864;28;20510;-70
2023/07/14 06:43:30;;;;;;;17.73;12.52;;;18.00;99.90;;;;;;5042042;28;20116;-70
2023/07/14 06:45:55;;;;;;;15.27;11.98;;;18.10;99.90;;;;;;5051247;28;20041;-70
2023/07/14 06:48:21;;;;;;;15.95;12.45;;;18.30;99.90;;;;;;5052701;28;20059;-70
2023/07/14 06:50:47;;;;;;;18.67;11.63;;;18.30;99.90;;;;;;5050882;28;20536;-70
2023/07/14 06:53:13;;;;;;;15.55;12.10;;;18.50;99.90;;;;;;5063907;28;20123;-70
2023/07/14 06:55:40;;;;;;;18.13;13.02;;;18.60;99.90;;;;;;5071187;28;20440;-70
2023/07/14 06:58:06;;;;;;;17.65;11.63;;;18.80;99.90;;;;;;5048718;28;20097;-70
2023/07/14 07:00:33;;;;;;;18.42;12.45;;;18.90;99.90;;;;;;5050583;28;20040;-70
2023/07/14 07:03:03;;;;;;;16.08;11.43;;;19.00;99.90;;;;;;5034143;28;20061;-70
2023/07/14 07:05:30;;;;;;;15.43;11.15;;;19.10;99.90;;;;;;5043891;28;20525;-70
2023/07/14 07:07:55;;;;;;;12.45;10.38;;;19.20;99.90;;;;;;5049927;28;20041;-70
2023/07/14 07:10:21;;;;;;;16.50;10.48;;;19.30;99.90;;;;;;5051936;28;20029;-70
2023/07/14 07:12:47;;;;;;;14.52;10.25;;;19.40;99.90;;;;;;5048484;28;20033;-70
2023/07/14 07:15:13;;;;;;;14.13;9.95;;;19.50;99.90;;;;;;5047501;28;20102;-70
2023/07/14 07:17:41;;;;;;;14.80;10.32;;;19.60;99.90;;;;;;5057229;28;20036;-70
2023/07/14 07:20:08;;;;;;;12.88;9.52;;;19.70;99.90;;;;;;5050930;28;20084;-70
2023/07/14 07:22:37;;;;;;;15.52;10.05;;;19.70;99.90;;;;;;5055341;28;20086;-70
2023/07/14 07:25:03;;;;;;;13.93;9.15;;;19.80;99.90;;;;;;5044375;28;20510;-70
2023/07/14 07:27:29;;;;;;;12.55;10.30;;;19.90;99.90;;;;;;5050603;28;20091;-70
2023/07/14 07:29:54;;;;;;;12.75;9.15;;;20.00;99.90;;;;;;5051295;28;20124;-70
2023/07/14 07:32:20;;;;;;;16.08;8.25;;;20.10;99.90;;;;;;5042208;28;20048;-70
2023/07/14 07:34:46;;;;;;;10.43;8.27;;;20.20;99.90;;;;;;5049357;28;20072;-70
2023/07/14 07:37:12;;;;;;;11.30;7.53;;;20.20;99.90;;;;;;5047478;28;20040;-70
2023/07/14 07:39:38;;;;;;;12.55;7.60;;;20.20;99.90;;;;;;5042192;28;20060;-71
2023/07/14 07:42:04;;;;;;;12.38;7.85;;;20.10;99.90;;;;;;5044100;28;20460;-70
2023/07/14 07:44:31;;;;;;;11.30;8.23;;;19.90;99.90;;;;;;5041946;28;20029;-71
2023/07/14 07:46:57;;;;;;;11.48;7.68;;;19.90;99.90;;;;;;5048465;28;20052;-70
2023/07/14 07:49:22;;;;;;;12.38;7.97;;;20.00;99.90;;;;;;5037253;28;20423;-71
2023/07/14 07:51:48;;;;;;;11.65;8.10;;;20.00;99.90;;;;;;5047734;28;20044;-70
2023/07/14 07:54:14;;;;;;;11.82;7.95;;;20.00;99.90;;;;;;5042501;28;20044;-71
2023/07/14 07:56:42;;;;;;;11.45;8.18;;;20.20;99.90;;;;;;5043744;28;20498;-71
2023/07/14 07:59:10;;;;;;;12.27;7.82;;;20.30;99.90;;;;;;5043124;28;20143;-71
2023/07/14 08:01:35;;;;;;;10.25;6.65;;;20.40;99.90;;;;;;5050549;28;20518;-71
2023/07/14 08:04:01;;;;;;;13.00;7.30;;;20.50;99.90;;;;;;5051044;28;20037;-72
2023/07/14 08:06:28;;;;;;;10.02;7.18;;;20.60;99.90;;;;;;5047435;28;20514;-71
2023/07/14 08:08:54;;;;;;;10.82;7.15;;;20.70;99.90;;;;;;5038903;28;20047;-72
2023/07/14 08:11:20;;;;;;;12.27;7.88;;;20.90;99.90;;;;;;5046317;28;20120;-71
2023/07/14 08:13:45;;;;;;;10.93;6.70;;;21.00;99.90;;;;;;5049786;28;20057;-71
2023/07/14 08:16:11;;;;;;;9.70;6.50;;;21.10;99.90;;;;;;5051533;28;20045;-72
2023/07/14 08:18:37;;;;;;;12.57;6.90;;;21.10;99.90;;;;;;5051150;28;20044;-71
2023/07/14 08:21:02;;;;;;;10.57;6.13;;;21.10;99.90;;;;;;5051507;28;20037;-72
2023/07/14 08:23:28;;;;;;;11.07;6.93;;;21.20;99.90;;;;;;5050562;28;20383;-71
2023/07/14 08:25:56;;;;;;;11.10;6.30;;;21.30;99.90;;;;;;5061306;28;20062;-71
2023/07/14 08:28:23;;;;;;;6.95;6.18;;;21.40;99.90;;;;;;5063768;28;20072;-72
2023/07/14 08:30:50;;;;;;;8.52;5.07;;;21.40;99.90;;;;;;5071577;28;20040;-71
2023/07/14 08:33:18;;;;;;;7.70;5.18;;;21.50;99.90;;;;;;5069951;28;20052;-72
2023/07/14 08:35:44;;;;;;;8.82;4.80;;;21.50;99.90;;;;;;5070867;28;20044;-72
2023/07/14 08:38:09;;;;;;;8.27;5.18;;;21.50;99.90;;;;;;5060682;28;20029;-72
2023/07/14 08:40:47;;;;;;;6.88;4.40;;;21.40;99.90;;;;;;5061661;28;20394;-72
2023/07/14 08:43:21;;;;;;;7.60;3.80;;;21.40;99.90;;;;;;5070467;28;20561;-72
2023/07/14 08:45:58;;;;;;;7.82;3.83;;;21.20;99.90;;;;;;5071274;28;20075;-72
2023/07/14 08:48:34;;;;;;;7.40;3.90;;;21.10;99.90;;;;;;5071342;28;20093;-72
2023/07/14 08:51:10;;;;;;;4.20;2.95;;;21.20;99.90;;;;;;5063484;28;20048;-72
2023/07/14 08:53:36;;;;;;;5.80;2.72;;;21.20;99.90;;;;;;5062500;28;20044;-72
2023/07/14 08:56:04;;;;;;;5.15;3.00;;;21.30;99.90;;;;;;5057208;28;20048;-72
2023/07/14 08:58:36;;;;;;;7.43;3.38;;;21.20;99.90;;;;;;5030913;28;20041;-72
2023/07/14 09:01:21;;;;;;;5.22;3.30;;;21.10;99.90;;;;;;5032507;28;20537;-72
2023/07/14 09:03:51;;;;;;;4.65;2.78;;;21.00;99.90;;;;;;5034467;28;20044;-72
2023/07/14 09:06:17;;;;;;;6.65;3.20;;;21.20;99.90;;;;;;5058953;28;20036;-72
2023/07/14 09:08:43;;;;;;;5.40;2.88;;;21.30;99.90;;;;;;5069911;28;20517;-72
2023/07/14 09:11:38;;;;;;;5.57;3.10;;;21.30;99.90;;;;;;5047152;28;20112;-72
2023/07/14 09:14:09;;;;;;;7.80;3.33;;;21.30;99.90;;;;;;5035947;28;20491;-72
2023/07/14 09:16:40;;;;;;;5.57;2.80;;;21.40;99.90;;;;;;5034565;28;20042;-72
2023/07/14 09:19:11;;;;;;;6.07;3.22;;;21.40;99.90;;;;;;5039685;28;20068;-72
2023/07/14 09:22:14;;;;;;;5.50;2.50;;;21.30;99.90;;;;;;5059447;28;20508;-72
2023/07/14 09:25:04;;;;;;;8.60;4.03;;;21.40;99.90;;;;;;5058411;28;20086;-72
2023/07/14 09:27:31;;;;;;;4.57;2.80;;;21.20;99.90;;;;;;5054717;28;20415;-72
2023/07/14 09:29:59;;;;;;;7.10;3.20;;;21.00;99.90;;;;;;5048415;28;20052;-72
2023/07/14 09:32:37;;;;;;;4.30;2.88;;;20.90;99.90;;;;;;5033892;28;20037;-72
2023/07/14 09:35:18;;;;;;;4.32;2.17;;;20.90;99.90;;;;;;5062274;28;20393;-72
2023/07/14 09:37:47;;;;;;;;;;;20.90;99.90;;;;;;5074755;28;20041;-72
2023/07/14 09:40:23;;;;;;;5.65;2.80;;;21.20;99.90;;;;;;5073366;28;20042;-72
2023/07/14 09:42:52;;;;;;;5.40;3.13;;;21.50;99.90;;;;;;5074111;28;20068;-72
2023/07/14 09:45:25;;;;;;;6.53;2.97;;;21.90;99.90;;;;;;5072349;28;20445;-72
2023/07/14 09:48:18;;;;;;;4.13;2.63;;;22.10;99.90;;;;;;5063475;28;20045;-72
2023/07/14 09:50:49;;;;;;;3.72;2.20;;;22.40;99.90;;;;;;5069301;28;20040;-72
2023/07/14 09:53:15;;;;;;;4.35;2.70;;;22.60;99.90;;;;;;5073867;28;20131;-71
2023/07/14 09:55:49;;;;;;;5.13;2.80;;;22.90;99.90;;;;;;5073232;28;20115;-72
2023/07/14 09:58:16;;;;;;;3.05;2.55;;;23.10;99.90;;;;;;5073365;28;20557;-72
2023/07/14 10:00:43;;;;;;;5.88;2.92;;;23.20;99.90;;;;;;5071387;28;20082;-72
2023/07/14 10:03:16;;;;;;;3.72;2.53;;;23.30;99.90;;;;;;5064525;28;20032;-71
2023/07/14 10:05:49;;;;;;;4.30;2.58;;;23.40;99.90;;;;;;5051657;28;20049;-72
2023/07/14 10:08:30;;;;;;;5.85;3.40;;;23.40;99.60;;;;;;5052590;28;20127;-71
2023/07/14 10:10:58;;;;;;;6.32;3.08;;;23.50;99.90;;;;;;5041595;28;20053;-72
2023/07/14 10:13:26;;;;;;;6.40;2.72;;;23.60;99.90;;;;;;5032642;28;20041;-72
2023/07/14 10:16:03;;;;;;;4.05;2.83;;;23.50;99.90;;;;;;5033127;28;20052;-71
2023/07/14 10:18:30;;;;;;;3.78;2.63;;;23.50;99.90;;;;;;5047472;28;20037;-71
2023/07/14 10:21:20;;;;;;;5.93;2.97;;;23.10;99.90;;;;;;5053867;28;20069;-71
2023/07/14 10:24:14;;;;;;;8.48;3.47;;;22.80;99.60;;;;;;5032867;28;20037;-71
2023/07/14 10:26:52;;;;;;;4.25;2.92;;;22.80;99.90;;;;;;5033324;28;20041;-71
2023/07/14 10:29:20;;;;;;;4.55;2.70;;;22.90;99.60;;;;;;5032997;28;20495;-71
2023/07/14 10:32:01;;;;;;;5.30;2.75;;;23.00;99.20;;;;;;5033225;28;20076;-72
2023/07/14 10:34:42;;;;;;;;;;;23.20;99.00;;;;;;5047021;28;20124;-71
2023/07/14 10:37:14;;;;;;;;;;;23.30;98.80;;;;;;5065431;28;19921;-71
2023/07/14 10:39:48;;;;;;;4.65;3.05;;;23.20;99.50;;;;;;5052199;28;19924;-71
2023/07/14 10:42:22;;;;;;;3.38;2.80;;;23.00;99.20;;;;;;5053407;28;20103;-71
2023/07/14 10:44:49;;;;;;;6.38;2.88;;;22.90;98.90;;;;;;5063975;28;20040;-71
2023/07/14 10:47:20;;;;;;;5.30;3.38;;;22.80;99.20;;;;;;5072524;28;20094;-71
2023/07/14 10:49:52;;;;;;;;;;;22.60;99.20;;;;;;5072855;28;20044;-71
2023/07/14 10:52:27;;;;;;;4.43;3.00;;;22.50;99.30;;;;;;5056448;28;19982;-71
2023/07/14 10:55:04;;;;;;;5.57;2.92;;;22.40;99.80;;;;;;5059573;28;20098;-71
2023/07/14 10:57:47;;;;;;;4.45;2.83;;;22.30;99.60;;;;;;5036768;28;20029;-71
2023/07/14 11:00:35;;;;;;;5.63;2.78;;;22.20;99.40;;;;;;5057857;22;20013;-66
2023/07/14 11:03:19;;;;;;;4.40;3.03;;;22.10;99.60;;;;;;5011934;28;20042;-66
2023/07/14 11:05:56;;;;;;;4.68;3.00;;;21.90;99.60;;;;;;5009530;28;20034;-66
2023/07/14 11:08:25;;;;;;;4.55;3.15;;;21.80;99.90;;;;;;5005842;28;20033;-66
2023/07/14 11:11:13;;;;;;;5.95;2.97;;;21.70;99.90;;;;;;5012698;28;20042;-66
2023/07/14 11:14:17;;;;;;;3.85;2.90;;;21.80;99.90;;;;;;5011161;28;20041;-67
2023/07/14 11:17:09;;;;;;;5.45;2.90;;;21.90;99.90;;;;;;5004193;28;20069;-66
2023/07/14 11:19:35;;;;;;;3.92;2.58;;;22.40;99.90;;;;;;4997124;28;20117;-66
2023/07/14 11:22:29;;;;;;;3.80;2.67;;;22.70;99.90;;;;;;5009064;28;20499;-66
2023/07/14 11:25:05;;;;;;;5.82;2.60;;;23.10;99.20;;;;;;5010956;28;20034;-66
2023/07/14 11:27:47;;;;;;;4.07;2.70;;;23.30;98.90;;;;;;5006653;28;20511;-66
2023/07/14 11:30:21;;;;;;;4.13;2.63;;;23.50;97.90;;;;;;5010724;28;20042;-66
2023/07/14 11:32:59;;;;;;;8.35;2.90;;;23.60;97.60;;;;;;5011790;28;20042;-64
2023/07/14 11:35:33;;;;;;;4.53;2.53;;;23.70;96.90;;;;;;5005277;28;20046;-64
2023/07/14 11:38:24;;;;;;;4.38;2.65;;;23.80;96.70;;;;;;5010888;28;20070;-64
2023/07/14 11:40:52;;;;;;;4.38;2.63;;;23.80;96.00;;;;;;5010750;28;20447;-64
2023/07/14 11:43:27;;;;;;;6.47;3.05;;;23.80;95.30;;;;;;5011183;28;20117;-64
2023/07/14 11:46:19;;;;;;;4.35;2.75;;;24.00;96.00;;;;;;5009231;28;20037;-64
2023/07/14 11:48:53;;;;;;;3.60;2.47;;;23.90;93.10;;;;;;5002706;28;20053;-64
2023/07/14 11:51:21;;;;;;;3.92;2.55;;;23.80;93.70;;;;;;5019541;28;20120;-64
2023/07/14 11:54:04;;;;;;;8.10;2.90;;;23.80;93.80;;;;;;5010174;28;20056;-64
2023/07/14 11:56:35;;;;;;;4.63;2.88;;;23.80;93.80;;;;;;5009395;28;20038;-64
2023/07/14 11:59:22;;;;;;;7.55;3.00;;;23.90;94.10;;;;;;5010610;28;20038;-64
2023/07/14 12:01:53;;;;;;;5.05;2.60;;;23.80;93.50;;;;;;5006184;28;20038;-64
2023/07/14 12:04:29;;;;;;;5.32;2.80;;;23.90;93.50;;;;;;5006011;28;20042;-65
2023/07/14 12:07:14;;;;;;;5.40;2.80;;;23.90;94.20;;;;;;5009343;28;20381;-65
2023/07/14 12:10:12;;;;;;;5.38;2.75;;;24.00;93.80;;;;;;5008686;28;20121;-65
2023/07/14 12:12:40;;;;;;;4.25;2.67;;;23.90;93.30;;;;;;4995475;28;20042;-65
2023/07/14 12:15:39;;;;;;;4.13;2.50;;;23.90;93.30;;;;;;5009859;28;20034;-65
2023/07/14 12:18:37;;;;;;;3.17;2.13;;;23.80;92.10;;;;;;5005975;28;20554;-65
2023/07/14 12:21:14;;;;;;;4.57;2.75;;;23.60;92.10;;;;;;5008294;28;20040;-65
2023/07/14 12:23:42;;;;;;;3.58;1.83;;;23.80;92.60;;;;;;5025422;28;20034;-65
2023/07/14 12:26:17;;;;;;;5.30;2.30;;;24.00;93.00;;;;;;5011041;28;20041;-65
2023/07/14 12:28:43;;;;;;;4.32;2.40;;;24.10;92.80;;;;;;5008052;28;20088;-65
2023/07/14 12:31:17;;;;;;;4.93;2.17;;;24.20;92.80;;;;;;5002879;28;20073;-65
2023/07/14 12:33:45;;;;;;;3.88;2.10;;;24.10;92.20;;;;;;5014357;28;20042;-65
2023/07/14 12:36:20;;;;;;;5.55;2.65;;;24.00;92.30;;;;;;5007905;28;20490;-65
2023/07/14 12:38:48;;;;;;;3.92;2.47;;;23.90;92.10;;;;;;5010514;28;20042;-65
2023/07/14 12:41:16;;;;;;;5.30;2.70;;;23.80;92.10;;;;;;5018447;28;20086;-65
2023/07/14 12:43:51;;;;;;;3.97;2.45;;;23.80;92.70;;;;;;5010958;28;20066;-65
2023/07/14 12:46:30;;;;;;;3.47;2.25;;;23.70;93.20;;;;;;5020023;28;20084;-66
2023/07/14 12:49:20;;;;;;;3.50;2.20;;;23.60;93.40;;;;;;5014667;28;20034;-65
2023/07/14 12:51:46;;;;;;;3.45;2.13;;;23.40;92.90;;;;;;5014342;28;20065;-65
2023/07/14 12:54:18;;;;;;;5.03;2.50;;;23.30;92.30;;;;;;5012905;28;20400;-65